Portada
METAR-TAF:

METAR-TAF

Aeroports :

Amman, Jordània

latitud: 31-59N, longitud: 035-59E, altitud: 767 m

Observació

L'informe es va fer fa 19 minuts, a les 06:00 UTC
Vent 2 kt del Oest
Temperatura 1°C
Humitat 93%
Pressió 1026 hPa
Visibilitat 10 km o més
sense núvols per sota de 1500 mi sense presència de cumulonimbus.

METAR: OJAM 210600Z 26002KT CAVOK 01/00 Q1026 NOSIG

Hora: 08:19 (06:19 UTC)

Pronòstic

L'informe es va fer fa 29 minuts, a les 05:50 UTC
Pronòstic vàlid del 21 a les 06 UTC al 22 a les 12 UTC
Vent 6 kt del Sud-Est
Visibilitat: 6000 m
Escasses núvols a una alçada de 3000 ft
Probabilitat 30%
l' 22 a les 02 UTC al 22 a les 06 UTC
Vent 2 kt amb direcció variable
Visibilitat: 3000 m
boirina
Evolucionant progressivament
l' 22 a les 10 UTC al 22 a les 12 UTC
Vent 8 kt del Oest

TAF: OJAM 210550Z 2106/2212 14006KT 6000 FEW030 PROB30 2202/2206 VRB02KT 3000 BR BECMG 2210/2212 27008KT

Observacions i pronòstics meteorològics de més de 4000 aeroports (METAR i TAF).

Les estacions disponibles són els punts grocs i vermells al mapa.

Posi el ratolí al punt desitjat per veure el nom de l'estació.

Feu clic per veure les observacions i els pronòstics meteorològics.

Per canviar el mapa: feu clic els botons verds amb una creu de color negre per apropar; al botó verd amb un guió per allunyar la imatge; o en les fletxes verdes per a mapes adjacents.


METAR-TAF: